sensor_id;sensor_type;location;lat;lon;timestamp;temperature;humidity
32187;DHT22;18686;53.084;8.872;2023-04-01T00:00:35;9.90;99.90
32187;DHT22;18686;53.084;8.872;2023-04-01T00:03:06;9.80;99.90
32187;DHT22;18686;53.084;8.872;2023-04-01T00:05:37;9.80;99.90
32187;DHT22;18686;53.084;8.872;2023-04-01T00:08:07;9.80;99.90
32187;DHT22;18686;53.084;8.872;2023-04-01T00:10:37;9.80;99.90
32187;DHT22;18686;53.084;8.872;2023-04-01T00:13:06;9.90;99.90
32187;DHT22;18686;53.084;8.872;2023-04-01T00:15:34;9.90;99.90
32187;DHT22;18686;53.084;8.872;2023-04-01T00:18:03;9.80;99.90
32187;DHT22;18686;53.084;8.872;2023-04-01T00:20:31;9.80;99.90
32187;DHT22;18686;53.084;8.872;2023-04-01T00:22:59;9.80;99.90
32187;DHT22;18686;53.084;8.872;2023-04-01T00:25:29;9.80;99.90
32187;DHT22;18686;53.084;8.872;2023-04-01T00:27:58;9.80;99.90
32187;DHT22;18686;53.084;8.872;2023-04-01T00:30:26;9.70;99.90
32187;DHT22;18686;53.084;8.872;2023-04-01T00:32:54;9.80;99.90
32187;DHT22;18686;53.084;8.872;2023-04-01T00:35:22;9.70;99.90
32187;DHT22;18686;53.084;8.872;2023-04-01T00:37:50;9.80;99.90
32187;DHT22;18686;53.084;8.872;2023-04-01T00:40:29;9.80;99.90
32187;DHT22;18686;53.084;8.872;2023-04-01T00:42:58;9.80;99.90
32187;DHT22;18686;53.084;8.872;2023-04-01T00:45:37;9.80;99.90
32187;DHT22;18686;53.084;8.872;2023-04-01T00:48:09;9.80;99.90
32187;DHT22;18686;53.084;8.872;2023-04-01T00:50:40;9.80;99.90
32187;DHT22;18686;53.084;8.872;2023-04-01T00:53:10;9.80;99.90
32187;DHT22;18686;53.084;8.872;2023-04-01T00:55:43;9.80;99.90
32187;DHT22;18686;53.084;8.872;2023-04-01T00:58:15;9.80;99.90
32187;DHT22;18686;53.084;8.872;2023-04-01T01:00:46;9.70;99.90
32187;DHT22;18686;53.084;8.872;2023-04-01T01:03:16;9.80;99.90
32187;DHT22;18686;53.084;8.872;2023-04-01T01:05:57;9.80;99.90
32187;DHT22;18686;53.084;8.872;2023-04-01T01:08:39;9.80;99.90
32187;DHT22;18686;53.084;8.872;2023-04-01T01:11:11;9.80;99.90
32187;DHT22;18686;53.084;8.872;2023-04-01T01:13:43;9.80;99.90
32187;DHT22;18686;53.084;8.872;2023-04-01T01:16:17;9.70;99.90
32187;DHT22;18686;53.084;8.872;2023-04-01T01:18:51;9.70;99.90
32187;DHT22;18686;53.084;8.872;2023-04-01T01:24:31;9.70;99.90
32187;DHT22;18686;53.084;8.872;2023-04-01T01:27:07;9.70;99.90
32187;DHT22;18686;53.084;8.872;2023-04-01T01:30:06;9.80;99.90
32187;DHT22;18686;53.084;8.872;2023-04-01T01:35:32;9.80;99.90
32187;DHT22;18686;53.084;8.872;2023-04-01T01:38:09;9.80;99.90
32187;DHT22;18686;53.084;8.872;2023-04-01T01:40:42;9.80;99.90
32187;DHT22;18686;53.084;8.872;2023-04-01T01:43:14;9.80;99.90
32187;DHT22;18686;53.084;8.872;2023-04-01T01:45:48;9.70;99.90
32187;DHT22;18686;53.084;8.872;2023-04-01T01:48:17;9.70;99.90
32187;DHT22;18686;53.084;8.872;2023-04-01T01:50:48;9.70;99.90
32187;DHT22;18686;53.084;8.872;2023-04-01T01:53:17;9.70;99.90
32187;DHT22;18686;53.084;8.872;2023-04-01T01:55:46;9.70;99.90
32187;DHT22;18686;53.084;8.872;2023-04-01T01:58:19;9.80;99.90
32187;DHT22;18686;53.084;8.872;2023-04-01T02:00:50;9.70;99.90
32187;DHT22;18686;53.084;8.872;2023-04-01T02:03:21;9.70;99.90
32187;DHT22;18686;53.084;8.872;2023-04-01T02:05:54;9.70;99.90
32187;DHT22;18686;53.084;8.872;2023-04-01T02:08:26;9.70;99.90
32187;DHT22;18686;53.084;8.872;2023-04-01T02:10:57;9.70;99.90
32187;DHT22;18686;53.084;8.872;2023-04-01T02:13:35;9.70;99.90
32187;DHT22;18686;53.084;8.872;2023-04-01T02:16:10;9.70;99.90
32187;DHT22;18686;53.084;8.872;2023-04-01T02:18:39;9.70;99.90
32187;DHT22;18686;53.084;8.872;2023-04-01T02:21:10;9.70;99.90
32187;DHT22;18686;53.084;8.872;2023-04-01T02:23:40;9.70;99.90
32187;DHT22;18686;53.084;8.872;2023-04-01T02:26:10;9.70;99.90
32187;DHT22;18686;53.084;8.872;2023-04-01T02:28:40;9.70;99.90
32187;DHT22;18686;53.084;8.872;2023-04-01T02:31:10;9.80;99.90
32187;DHT22;18686;53.084;8.872;2023-04-01T02:33:39;9.80;99.90
32187;DHT22;18686;53.084;8.872;2023-04-01T02:36:12;9.80;99.90
32187;DHT22;18686;53.084;8.872;2023-04-01T02:38:42;9.70;99.90
32187;DHT22;18686;53.084;8.872;2023-04-01T02:41:11;9.70;99.90
32187;DHT22;18686;53.084;8.872;2023-04-01T02:43:40;9.70;99.90
32187;DHT22;18686;53.084;8.872;2023-04-01T02:46:08;9.70;99.90
32187;DHT22;18686;53.084;8.872;2023-04-01T02:48:37;9.70;99.90
32187;DHT22;18686;53.084;8.872;2023-04-01T02:51:06;9.70;99.90
32187;DHT22;18686;53.084;8.872;2023-04-01T02:53:35;9.70;99.90
32187;DHT22;18686;53.084;8.872;2023-04-01T02:56:04;9.70;99.90
32187;DHT22;18686;53.084;8.872;2023-04-01T02:58:32;9.70;99.90
32187;DHT22;18686;53.084;8.872;2023-04-01T03:01:00;9.70;99.90
32187;DHT22;18686;53.084;8.872;2023-04-01T03:03:28;9.60;99.90
32187;DHT22;18686;53.084;8.872;2023-04-01T03:05:56;9.60;99.90
32187;DHT22;18686;53.084;8.872;2023-04-01T03:08:26;9.60;99.90
32187;DHT22;18686;53.084;8.872;2023-04-01T03:10:56;9.60;99.90
32187;DHT22;18686;53.084;8.872;2023-04-01T03:13:26;9.60;99.90
32187;DHT22;18686;53.084;8.872;2023-04-01T03:15:54;9.60;99.90
32187;DHT22;18686;53.084;8.872;2023-04-01T03:18:23;9.60;99.90
32187;DHT22;18686;53.084;8.872;2023-04-01T03:20:51;9.60;99.90
32187;DHT22;18686;53.084;8.872;2023-04-01T03:23:19;9.60;99.90
32187;DHT22;18686;53.084;8.872;2023-04-01T03:25:48;9.60;99.90
32187;DHT22;18686;53.084;8.872;2023-04-01T03:28:17;9.60;99.90
32187;DHT22;18686;53.084;8.872;2023-04-01T03:30:46;9.60;99.90
32187;DHT22;18686;53.084;8.872;2023-04-01T03:33:14;9.60;99.90
32187;DHT22;18686;53.084;8.872;2023-04-01T03:35:42;9.60;99.90
32187;DHT22;18686;53.084;8.872;2023-04-01T03:38:10;9.60;99.90
32187;DHT22;18686;53.084;8.872;2023-04-01T03:40:43;9.60;99.90
32187;DHT22;18686;53.084;8.872;2023-04-01T03:43:12;9.60;99.90
32187;DHT22;18686;53.084;8.872;2023-04-01T03:45:45;9.60;99.90
32187;DHT22;18686;53.084;8.872;2023-04-01T03:48:14;9.60;99.90
32187;DHT22;18686;53.084;8.872;2023-04-01T03:50:43;9.60;99.90
32187;DHT22;18686;53.084;8.872;2023-04-01T03:53:12;9.60;99.90
32187;DHT22;18686;53.084;8.872;2023-04-01T03:55:42;9.60;99.90
32187;DHT22;18686;53.084;8.872;2023-04-01T03:58:10;9.50;99.90
32187;DHT22;18686;53.084;8.872;2023-04-01T04:00:39;9.60;99.90
32187;DHT22;18686;53.084;8.872;2023-04-01T04:03:09;9.60;99.90
32187;DHT22;18686;53.084;8.872;2023-04-01T04:05:45;9.60;99.90
32187;DHT22;18686;53.084;8.872;2023-04-01T04:08:15;9.60;99.90
32187;DHT22;18686;53.084;8.872;2023-04-01T04:10:44;9.60;99.90
32187;DHT22;18686;53.084;8.872;2023-04-01T04:13:13;9.60;99.90
32187;DHT22;18686;53.084;8.872;2023-04-01T04:15:48;9.60;99.90
32187;DHT22;18686;53.084;8.872;2023-04-01T04:18:18;9.60;99.90
32187;DHT22;18686;53.084;8.872;2023-04-01T04:20:47;9.60;99.90
32187;DHT22;18686;53.084;8.872;2023-04-01T04:23:18;9.60;99.90
32187;DHT22;18686;53.084;8.872;2023-04-01T04:25:54;9.60;99.90
32187;DHT22;18686;53.084;8.872;2023-04-01T04:28:24;9.60;99.90
32187;DHT22;18686;53.084;8.872;2023-04-01T04:30:53;9.60;99.90
32187;DHT22;18686;53.084;8.872;2023-04-01T04:33:23;9.60;99.90
32187;DHT22;18686;53.084;8.872;2023-04-01T04:35:54;9.60;99.90
32187;DHT22;18686;53.084;8.872;2023-04-01T04:38:24;9.60;99.90
32187;DHT22;18686;53.084;8.872;2023-04-01T04:40:53;9.50;99.90
32187;DHT22;18686;53.084;8.872;2023-04-01T04:43:22;9.50;99.90
32187;DHT22;18686;53.084;8.872;2023-04-01T04:45:50;9.50;99.90
32187;DHT22;18686;53.084;8.872;2023-04-01T04:48:19;9.50;99.90
32187;DHT22;18686;53.084;8.872;2023-04-01T04:50:50;9.50;99.90
32187;DHT22;18686;53.084;8.872;2023-04-01T04:53:22;9.50;99.90
32187;DHT22;18686;53.084;8.872;2023-04-01T04:55:52;9.50;99.90
32187;DHT22;18686;53.084;8.872;2023-04-01T04:58:33;9.50;99.90
32187;DHT22;18686;53.084;8.872;2023-04-01T05:01:06;9.50;99.90
32187;DHT22;18686;53.084;8.872;2023-04-01T05:03:34;9.50;99.90
32187;DHT22;18686;53.084;8.872;2023-04-01T05:06:06;9.50;99.90
32187;DHT22;18686;53.084;8.872;2023-04-01T05:08:35;9.50;99.90
32187;DHT22;18686;53.084;8.872;2023-04-01T05:11:07;9.50;99.90
32187;DHT22;18686;53.084;8.872;2023-04-01T05:13:42;9.50;99.90
32187;DHT22;18686;53.084;8.872;2023-04-01T05:16:12;9.50;99.90
32187;DHT22;18686;53.084;8.872;2023-04-01T05:18:41;9.50;99.90
32187;DHT22;18686;53.084;8.872;2023-04-01T05:21:12;9.50;99.90
32187;DHT22;18686;53.084;8.872;2023-04-01T05:23:42;9.60;99.90
32187;DHT22;18686;53.084;8.872;2023-04-01T05:26:13;9.60;99.90
32187;DHT22;18686;53.084;8.872;2023-04-01T05:28:42;9.60;99.90
32187;DHT22;18686;53.084;8.872;2023-04-01T05:31:10;9.60;99.90
32187;DHT22;18686;53.084;8.872;2023-04-01T05:33:42;9.60;99.90
32187;DHT22;18686;53.084;8.872;2023-04-01T05:36:13;9.60;99.90
32187;DHT22;18686;53.084;8.872;2023-04-01T05:38:42;9.60;99.90
32187;DHT22;18686;53.084;8.872;2023-04-01T05:41:13;9.60;99.90
32187;DHT22;18686;53.084;8.872;2023-04-01T05:43:44;9.70;99.90
32187;DHT22;18686;53.084;8.872;2023-04-01T05:46:31;9.70;99.90
32187;DHT22;18686;53.084;8.872;2023-04-01T05:49:10;9.70;99.90
32187;DHT22;18686;53.084;8.872;2023-04-01T05:51:39;9.60;99.90
32187;DHT22;18686;53.084;8.872;2023-04-01T05:54:08;9.70;99.90
32187;DHT22;18686;53.084;8.872;2023-04-01T05:56:37;9.60;99.90
32187;DHT22;18686;53.084;8.872;2023-04-01T05:59:05;9.70;99.90
32187;DHT22;18686;53.084;8.872;2023-04-01T06:01:33;9.70;99.90
32187;DHT22;18686;53.084;8.872;2023-04-01T06:04:02;9.70;99.90
32187;DHT22;18686;53.084;8.872;2023-04-01T06:06:31;9.70;99.90
32187;DHT22;18686;53.084;8.872;2023-04-01T06:09:13;9.70;99.90
32187;DHT22;18686;53.084;8.872;2023-04-01T06:12:10;9.70;99.90
32187;DHT22;18686;53.084;8.872;2023-04-01T06:15:06;9.70;99.90
32187;DHT22;18686;53.084;8.872;2023-04-01T06:18:04;9.70;99.90
32187;DHT22;18686;53.084;8.872;2023-04-01T06:20:42;9.70;99.90
32187;DHT22;18686;53.084;8.872;2023-04-01T06:23:24;9.70;99.90
32187;DHT22;18686;53.084;8.872;2023-04-01T06:26:12;9.70;99.90
32187;DHT22;18686;53.084;8.872;2023-04-01T06:29:05;9.70;99.90
32187;DHT22;18686;53.084;8.872;2023-04-01T06:32:06;9.70;99.90
32187;DHT22;18686;53.084;8.872;2023-04-01T06:34:54;9.80;99.90
32187;DHT22;18686;53.084;8.872;2023-04-01T06:37:46;9.90;99.90
32187;DHT22;18686;53.084;8.872;2023-04-01T06:40:41;9.90;99.90
32187;DHT22;18686;53.084;8.872;2023-04-01T06:43:20;9.90;99.90
32187;DHT22;18686;53.084;8.872;2023-04-01T06:46:31;10.00;99.90
32187;DHT22;18686;53.084;8.872;2023-04-01T06:49:34;10.00;99.90
32187;DHT22;18686;53.084;8.872;2023-04-01T06:52:26;10.10;99.90
32187;DHT22;18686;53.084;8.872;2023-04-01T06:55:34;10.10;99.90
32187;DHT22;18686;53.084;8.872;2023-04-01T06:58:26;10.20;99.90
32187;DHT22;18686;53.084;8.872;2023-04-01T07:00:58;10.20;99.90
32187;DHT22;18686;53.084;8.872;2023-04-01T07:03:31;10.30;99.90
32187;DHT22;18686;53.084;8.872;2023-04-01T07:06:05;10.30;99.90
32187;DHT22;18686;53.084;8.872;2023-04-01T07:08:41;10.40;99.90
32187;DHT22;18686;53.084;8.872;2023-04-01T07:11:14;10.40;99.90
32187;DHT22;18686;53.084;8.872;2023-04-01T07:14:17;10.40;99.90
32187;DHT22;18686;53.084;8.872;2023-04-01T07:16:50;10.40;99.90
32187;DHT22;18686;53.084;8.872;2023-04-01T07:19:24;10.40;99.90
32187;DHT22;18686;53.084;8.872;2023-04-01T07:22:03;10.50;99.90
32187;DHT22;18686;53.084;8.872;2023-04-01T07:24:53;10.40;99.90
32187;DHT22;18686;53.084;8.872;2023-04-01T07:27:24;10.40;99.90
32187;DHT22;18686;53.084;8.872;2023-04-01T07:29:57;10.40;99.90
32187;DHT22;18686;53.084;8.872;2023-04-01T07:32:34;10.30;99.90
32187;DHT22;18686;53.084;8.872;2023-04-01T07:35:24;10.40;99.90
32187;DHT22;18686;53.084;8.872;2023-04-01T07:38:12;10.50;99.90
32187;DHT22;18686;53.084;8.872;2023-04-01T07:40:48;10.50;99.90
32187;DHT22;18686;53.084;8.872;2023-04-01T07:43:27;10.50;99.90
32187;DHT22;18686;53.084;8.872;2023-04-01T07:46:38;10.50;99.90
32187;DHT22;18686;53.084;8.872;2023-04-01T07:49:15;10.50;99.90
32187;DHT22;18686;53.084;8.872;2023-04-01T07:51:49;10.50;99.90
32187;DHT22;18686;53.084;8.872;2023-04-01T07:54:28;10.60;99.90
32187;DHT22;18686;53.084;8.872;2023-04-01T07:57:03;10.60;99.90
32187;DHT22;18686;53.084;8.872;2023-04-01T07:59:54;10.70;99.90
32187;DHT22;18686;53.084;8.872;2023-04-01T08:02:52;10.80;99.90
32187;DHT22;18686;53.084;8.872;2023-04-01T08:05:26;10.90;99.90
32187;DHT22;18686;53.084;8.872;2023-04-01T08:08:06;11.00;99.90
32187;DHT22;18686;53.084;8.872;2023-04-01T08:10:59;11.10;99.90
32187;DHT22;18686;53.084;8.872;2023-04-01T08:14:08;11.10;99.90
32187;DHT22;18686;53.084;8.872;2023-04-01T08:17:16;11.30;99.90
32187;DHT22;18686;53.084;8.872;2023-04-01T08:19:59;11.40;99.90
32187;DHT22;18686;53.084;8.872;2023-04-01T08:22:37;11.50;99.90
32187;DHT22;18686;53.084;8.872;2023-04-01T08:25:22;11.60;99.90
32187;DHT22;18686;53.084;8.872;2023-04-01T08:27:57;11.60;99.90
32187;DHT22;18686;53.084;8.872;2023-04-01T08:30:35;11.50;99.90
32187;DHT22;18686;53.084;8.872;2023-04-01T08:33:12;11.60;99.90
32187;DHT22;18686;53.084;8.872;2023-04-01T08:35:47;11.70;99.90
32187;DHT22;18686;53.084;8.872;2023-04-01T08:38:21;11.80;99.90
32187;DHT22;18686;53.084;8.872;2023-04-01T08:41:00;11.80;99.90
32187;DHT22;18686;53.084;8.872;2023-04-01T08:44:11;11.60;99.90
32187;DHT22;18686;53.084;8.872;2023-04-01T08:47:04;11.60;99.90
32187;DHT22;18686;53.084;8.872;2023-04-01T08:50:01;11.60;99.90
32187;DHT22;18686;53.084;8.872;2023-04-01T08:53:03;11.60;99.90
32187;DHT22;18686;53.084;8.872;2023-04-01T08:55:46;11.70;99.90
32187;DHT22;18686;53.084;8.872;2023-04-01T09:01:41;11.80;99.90
32187;DHT22;18686;53.084;8.872;2023-04-01T09:04:43;12.00;99.90
32187;DHT22;18686;53.084;8.872;2023-04-01T09:07:28;12.10;99.90
32187;DHT22;18686;53.084;8.872;2023-04-01T09:10:18;12.00;99.90
32187;DHT22;18686;53.084;8.872;2023-04-01T09:13:03;12.00;99.90
32187;DHT22;18686;53.084;8.872;2023-04-01T09:15:51;12.00;99.90
32187;DHT22;18686;53.084;8.872;2023-04-01T09:21:35;12.30;99.90
32187;DHT22;18686;53.084;8.872;2023-04-01T09:24:30;12.40;99.90
32187;DHT22;18686;53.084;8.872;2023-04-01T09:27:05;12.70;99.90
32187;DHT22;18686;53.084;8.872;2023-04-01T09:32:58;13.40;99.90
32187;DHT22;18686;53.084;8.872;2023-04-01T09:35:39;13.80;99.90
32187;DHT22;18686;53.084;8.872;2023-04-01T09:38:29;13.90;99.90
32187;DHT22;18686;53.084;8.872;2023-04-01T09:41:01;14.00;99.90
32187;DHT22;18686;53.084;8.872;2023-04-01T09:44:01;14.00;99.90
32187;DHT22;18686;53.084;8.872;2023-04-01T09:46:48;14.00;99.90
32187;DHT22;18686;53.084;8.872;2023-04-01T09:49:48;14.00;99.90
32187;DHT22;18686;53.084;8.872;2023-04-01T09:52:29;14.20;99.90
32187;DHT22;18686;53.084;8.872;2023-04-01T09:55:23;14.40;99.90
32187;DHT22;18686;53.084;8.872;2023-04-01T09:58:39;14.40;99.90
32187;DHT22;18686;53.084;8.872;2023-04-01T10:02:06;14.30;99.90
32187;DHT22;18686;53.084;8.872;2023-04-01T10:05:27;14.30;99.90
32187;DHT22;18686;53.084;8.872;2023-04-01T10:08:22;14.40;99.90
32187;DHT22;18686;53.084;8.872;2023-04-01T10:11:13;14.30;99.90
32187;DHT22;18686;53.084;8.872;2023-04-01T10:14:12;14.30;99.90
32187;DHT22;18686;53.084;8.872;2023-04-01T10:26:25;13.00;99.90
32187;DHT22;18686;53.084;8.872;2023-04-01T10:29:47;12.50;99.90
32187;DHT22;18686;53.084;8.872;2023-04-01T10:39:34;11.90;99.90
32187;DHT22;18686;53.084;8.872;2023-04-01T10:43:05;11.60;99.90
32187;DHT22;18686;53.084;8.872;2023-04-01T10:49:30;11.40;99.90
32187;DHT22;18686;53.084;8.872;2023-04-01T10:52:27;11.20;99.90
32187;DHT22;18686;53.084;8.872;2023-04-01T10:55:28;11.20;99.90
32187;DHT22;18686;53.084;8.872;2023-04-01T10:58:55;11.20;99.90
32187;DHT22;18686;53.084;8.872;2023-04-01T11:12:41;12.20;99.90
32187;DHT22;18686;53.084;8.872;2023-04-01T11:15:31;12.50;99.90
32187;DHT22;18686;53.084;8.872;2023-04-01T11:18:35;12.70;99.90
32187;DHT22;18686;53.084;8.872;2023-04-01T11:21:42;12.60;99.90
32187;DHT22;18686;53.084;8.872;2023-04-01T11:24:51;12.40;99.90
32187;DHT22;18686;53.084;8.872;2023-04-01T11:27:50;12.20;99.90
32187;DHT22;18686;53.084;8.872;2023-04-01T11:30:32;11.90;99.90
32187;DHT22;18686;53.084;8.872;2023-04-01T11:33:05;11.80;99.90
32187;DHT22;18686;53.084;8.872;2023-04-01T11:36:08;11.60;99.90
32187;DHT22;18686;53.084;8.872;2023-04-01T11:38:53;11.40;99.90
32187;DHT22;18686;53.084;8.872;2023-04-01T11:41:49;11.30;99.90
32187;DHT22;18686;53.084;8.872;2023-04-01T11:44:40;11.10;99.90
32187;DHT22;18686;53.084;8.872;2023-04-01T11:47:27;11.00;99.90
32187;DHT22;18686;53.084;8.872;2023-04-01T11:50:12;11.00;99.90
32187;DHT22;18686;53.084;8.872;2023-04-01T11:52:59;11.00;99.90
32187;DHT22;18686;53.084;8.872;2023-04-01T11:55:38;11.00;99.90
32187;DHT22;18686;53.084;8.872;2023-04-01T12:01:31;11.10;99.90
32187;DHT22;18686;53.084;8.872;2023-04-01T12:04:27;11.10;99.90
32187;DHT22;18686;53.084;8.872;2023-04-01T12:07:03;11.20;99.90
32187;DHT22;18686;53.084;8.872;2023-04-01T12:09:40;11.30;99.90
32187;DHT22;18686;53.084;8.872;2023-04-01T12:12:20;11.50;99.90
32187;DHT22;18686;53.084;8.872;2023-04-01T12:15:00;11.70;99.90
32187;DHT22;18686;53.084;8.872;2023-04-01T12:17:37;11.70;99.90
32187;DHT22;18686;53.084;8.872;2023-04-01T12:20:33;11.80;99.90
32187;DHT22;18686;53.084;8.872;2023-04-01T12:23:19;11.80;99.90
32187;DHT22;18686;53.084;8.872;2023-04-01T12:26:11;11.80;99.90
32187;DHT22;18686;53.084;8.872;2023-04-01T12:28:58;11.70;99.90
32187;DHT22;18686;53.084;8.872;2023-04-01T12:31:34;11.70;99.90
32187;DHT22;18686;53.084;8.872;2023-04-01T12:37:21;11.50;99.90
32187;DHT22;18686;53.084;8.872;2023-04-01T12:40:05;11.50;99.90
32187;DHT22;18686;53.084;8.872;2023-04-01T12:42:57;11.50;99.90
32187;DHT22;18686;53.084;8.872;2023-04-01T12:45:31;11.60;99.90
32187;DHT22;18686;53.084;8.872;2023-04-01T12:48:25;11.60;99.90
32187;DHT22;18686;53.084;8.872;2023-04-01T12:51:24;11.60;99.90
32187;DHT22;18686;53.084;8.872;2023-04-01T12:54:18;11.60;99.90
32187;DHT22;18686;53.084;8.872;2023-04-01T12:57:03;11.60;99.90
32187;DHT22;18686;53.084;8.872;2023-04-01T12:59:51;11.60;99.90
32187;DHT22;18686;53.084;8.872;2023-04-01T13:02:35;11.50;99.90
32187;DHT22;18686;53.084;8.872;2023-04-01T13:05:35;11.60;99.90
32187;DHT22;18686;53.084;8.872;2023-04-01T13:08:20;11.60;99.90
32187;DHT22;18686;53.084;8.872;2023-04-01T13:11:08;11.60;99.90
32187;DHT22;18686;53.084;8.872;2023-04-01T13:16:31;11.70;99.90
32187;DHT22;18686;53.084;8.872;2023-04-01T13:19:06;11.70;99.90
32187;DHT22;18686;53.084;8.872;2023-04-01T13:21:43;11.60;99.90
32187;DHT22;18686;53.084;8.872;2023-04-01T13:24:25;11.60;99.90
32187;DHT22;18686;53.084;8.872;2023-04-01T13:27:04;11.50;99.90
32187;DHT22;18686;53.084;8.872;2023-04-01T13:29:36;11.50;99.90
32187;DHT22;18686;53.084;8.872;2023-04-01T13:32:18;11.40;99.90
32187;DHT22;18686;53.084;8.872;2023-04-01T13:35:17;11.30;99.90
32187;DHT22;18686;53.084;8.872;2023-04-01T13:37:54;11.20;99.90
32187;DHT22;18686;53.084;8.872;2023-04-01T13:40:33;11.20;99.90
32187;DHT22;18686;53.084;8.872;2023-04-01T13:43:11;11.10;99.90
32187;DHT22;18686;53.084;8.872;2023-04-01T13:45:55;10.90;99.90
32187;DHT22;18686;53.084;8.872;2023-04-01T13:48:35;10.90;99.90
32187;DHT22;18686;53.084;8.872;2023-04-01T13:51:19;10.80;99.90
32187;DHT22;18686;53.084;8.872;2023-04-01T13:54:13;10.70;99.90
32187;DHT22;18686;53.084;8.872;2023-04-01T13:56:53;10.70;99.90
32187;DHT22;18686;53.084;8.872;2023-04-01T13:59:45;10.60;99.90
32187;DHT22;18686;53.084;8.872;2023-04-01T14:02:29;10.60;99.90
32187;DHT22;18686;53.084;8.872;2023-04-01T14:05:14;10.50;99.90
32187;DHT22;18686;53.084;8.872;2023-04-01T14:08:09;10.40;99.90
32187;DHT22;18686;53.084;8.872;2023-04-01T14:10:43;10.30;99.90
32187;DHT22;18686;53.084;8.872;2023-04-01T14:13:22;10.30;99.90
32187;DHT22;18686;53.084;8.872;2023-04-01T14:16:10;10.20;99.90
32187;DHT22;18686;53.084;8.872;2023-04-01T14:18:59;10.20;99.90
32187;DHT22;18686;53.084;8.872;2023-04-01T14:21:33;10.20;99.90
32187;DHT22;18686;53.084;8.872;2023-04-01T14:24:06;10.20;99.90
32187;DHT22;18686;53.084;8.872;2023-04-01T14:27:04;10.20;99.90
32187;DHT22;18686;53.084;8.872;2023-04-01T14:29:44;10.20;99.90
32187;DHT22;18686;53.084;8.872;2023-04-01T14:32:24;10.10;99.90
32187;DHT22;18686;53.084;8.872;2023-04-01T14:35:11;10.10;99.90
32187;DHT22;18686;53.084;8.872;2023-04-01T14:38:04;10.00;99.90
32187;DHT22;18686;53.084;8.872;2023-04-01T14:40:50;10.00;99.90
32187;DHT22;18686;53.084;8.872;2023-04-01T14:43:41;9.90;99.90
32187;DHT22;18686;53.084;8.872;2023-04-01T14:46:27;9.90;99.90
32187;DHT22;18686;53.084;8.872;2023-04-01T14:49:13;9.80;99.90
32187;DHT22;18686;53.084;8.872;2023-04-01T14:51:42;9.90;99.90
32187;DHT22;18686;53.084;8.872;2023-04-01T14:54:15;9.90;99.90
32187;DHT22;18686;53.084;8.872;2023-04-01T14:56:50;9.90;99.90
32187;DHT22;18686;53.084;8.872;2023-04-01T14:59:27;9.90;99.90
32187;DHT22;18686;53.084;8.872;2023-04-01T15:02:00;9.80;99.90
32187;DHT22;18686;53.084;8.872;2023-04-01T15:04:57;9.80;99.90
32187;DHT22;18686;53.084;8.872;2023-04-01T15:07:51;9.80;99.90
32187;DHT22;18686;53.084;8.872;2023-04-01T15:10:49;9.70;99.90
32187;DHT22;18686;53.084;8.872;2023-04-01T15:13:34;9.70;99.90
32187;DHT22;18686;53.084;8.872;2023-04-01T15:16:13;9.60;99.90
32187;DHT22;18686;53.084;8.872;2023-04-01T15:18:53;9.60;99.90
32187;DHT22;18686;53.084;8.872;2023-04-01T15:21:39;9.60;99.90
32187;DHT22;18686;53.084;8.872;2023-04-01T15:24:15;9.50;99.90
32187;DHT22;18686;53.084;8.872;2023-04-01T15:26:59;9.50;99.90
32187;DHT22;18686;53.084;8.872;2023-04-01T15:32:48;9.50;99.90
32187;DHT22;18686;53.084;8.872;2023-04-01T15:35:25;9.50;99.90
32187;DHT22;18686;53.084;8.872;2023-04-01T15:38:02;9.50;99.90
32187;DHT22;18686;53.084;8.872;2023-04-01T15:40:40;9.40;99.90
32187;DHT22;18686;53.084;8.872;2023-04-01T15:43:18;9.30;99.90
32187;DHT22;18686;53.084;8.872;2023-04-01T15:45:58;9.30;99.90
32187;DHT22;18686;53.084;8.872;2023-04-01T15:48:49;9.20;99.90
32187;DHT22;18686;53.084;8.872;2023-04-01T15:51:31;9.20;99.90
32187;DHT22;18686;53.084;8.872;2023-04-01T15:54:23;9.20;99.90
32187;DHT22;18686;53.084;8.872;2023-04-01T15:57:15;9.10;99.90
32187;DHT22;18686;53.084;8.872;2023-04-01T16:00:05;9.00;99.90
32187;DHT22;18686;53.084;8.872;2023-04-01T16:02:46;9.00;99.90
32187;DHT22;18686;53.084;8.872;2023-04-01T16:05:32;9.00;99.90
32187;DHT22;18686;53.084;8.872;2023-04-01T16:08:40;9.00;99.90
32187;DHT22;18686;53.084;8.872;2023-04-01T16:11:21;9.00;99.90
32187;DHT22;18686;53.084;8.872;2023-04-01T16:14:03;8.90;99.90
32187;DHT22;18686;53.084;8.872;2023-04-01T16:16:45;8.90;99.90
32187;DHT22;18686;53.084;8.872;2023-04-01T16:19:28;8.80;99.90
32187;DHT22;18686;53.084;8.872;2023-04-01T16:22:02;8.80;99.90
32187;DHT22;18686;53.084;8.872;2023-04-01T16:24:35;8.70;99.90
32187;DHT22;18686;53.084;8.872;2023-04-01T16:27:13;8.70;99.90
32187;DHT22;18686;53.084;8.872;2023-04-01T16:29:47;8.60;99.90
32187;DHT22;18686;53.084;8.872;2023-04-01T16:32:37;8.60;99.90
32187;DHT22;18686;53.084;8.872;2023-04-01T16:35:22;8.50;99.90
32187;DHT22;18686;53.084;8.872;2023-04-01T16:37:57;8.50;99.90
32187;DHT22;18686;53.084;8.872;2023-04-01T16:40:37;8.40;99.90
32187;DHT22;18686;53.084;8.872;2023-04-01T16:43:16;8.40;99.90
32187;DHT22;18686;53.084;8.872;2023-04-01T16:45:57;8.40;99.90
32187;DHT22;18686;53.084;8.872;2023-04-01T16:48:34;8.40;99.90
32187;DHT22;18686;53.084;8.872;2023-04-01T16:51:10;8.30;99.90
32187;DHT22;18686;53.084;8.872;2023-04-01T16:53:42;8.30;99.90
32187;DHT22;18686;53.084;8.872;2023-04-01T16:56:15;8.20;99.90
32187;DHT22;18686;53.084;8.872;2023-04-01T16:58:58;8.20;99.90
32187;DHT22;18686;53.084;8.872;2023-04-01T17:01:36;8.20;99.90
32187;DHT22;18686;53.084;8.872;2023-04-01T17:04:12;8.10;99.90
32187;DHT22;18686;53.084;8.872;2023-04-01T17:06:48;8.10;99.90
32187;DHT22;18686;53.084;8.872;2023-04-01T17:09:29;8.00;99.90
32187;DHT22;18686;53.084;8.872;2023-04-01T17:12:08;8.00;99.90
32187;DHT22;18686;53.084;8.872;2023-04-01T17:14:46;8.00;99.90
32187;DHT22;18686;53.084;8.872;2023-04-01T17:17:26;8.00;99.90
32187;DHT22;18686;53.084;8.872;2023-04-01T17:20:09;8.00;99.90
32187;DHT22;18686;53.084;8.872;2023-04-01T17:22:47;8.00;99.90
32187;DHT22;18686;53.084;8.872;2023-04-01T17:25:29;7.90;99.90
32187;DHT22;18686;53.084;8.872;2023-04-01T17:28:05;7.80;99.90
32187;DHT22;18686;53.084;8.872;2023-04-01T17:30:40;7.80;99.90
32187;DHT22;18686;53.084;8.872;2023-04-01T17:33:30;7.80;99.90
32187;DHT22;18686;53.084;8.872;2023-04-01T17:36:06;7.70;99.90
32187;DHT22;18686;53.084;8.872;2023-04-01T17:38:54;7.70;99.90
32187;DHT22;18686;53.084;8.872;2023-04-01T17:41:31;7.70;99.90
32187;DHT22;18686;53.084;8.872;2023-04-01T17:44:10;7.70;99.90
32187;DHT22;18686;53.084;8.872;2023-04-01T17:46:56;7.70;99.90
32187;DHT22;18686;53.084;8.872;2023-04-01T17:49:33;7.70;99.90
32187;DHT22;18686;53.084;8.872;2023-04-01T17:52:09;7.60;99.90
32187;DHT22;18686;53.084;8.872;2023-04-01T17:54:42;7.60;99.90
32187;DHT22;18686;53.084;8.872;2023-04-01T17:57:39;7.60;99.90
32187;DHT22;18686;53.084;8.872;2023-04-01T18:00:20;7.60;99.90